Home   Weather   China   Taiyuan   Past weeks
Flag for China

Past Weather in Taiyuan, Shanxi, China — Yesterday and Last 2 Weeks

Currently: 28 °F. Ice fog. (Weather station: Taiyuan Airport, China). See more current weather

Past Weather in Taiyuan — Graph

°F

Taiyuan Temperature Yesterday

Maximum temperature yesterday: 37 °F (at 1:30 pm)
Minimum temperature yesterday: 23 °F (at 1:30 am)
Average temperature yesterday: 30 °F

High & Low Weather Summary for the Past Weeks

 TemperatureHumidityPressure
High46 °F (Jan 15, 2:30 pm)100% (Jan 22, 12:00 am)30.42 "Hg (Jan 22, 12:00 am)
Low9 °F (Jan 13, 6:00 am)12% (Jan 17, 4:00 pm)29.95 "Hg (Jan 14, 2:30 pm)
Average27 °F60%30.19 "Hg
* Reported Jan 12 5:00 am — Jan 27 5:30 am, Taiyuan. Weather by CustomWeather, © 2022

Note: Actual official high and low records may vary slightly from our data, if they occured in-between our weather recording intervals... More about our weather records

Taiyuan Weather History for the Previous 24 Hours

Scroll right to see more
 ConditionsComfort  
Time TempWeatherWind HumidityBarometerVisibility
5:30 am
Thu, Jan 27
28 °FIce fog.1 mph93%30.30 "Hg1 mi
5:00 am28 °FIce fog.1 mph93%30.30 "Hg1 mi
4:30 am28 °FIce fog.1 mph93%30.30 "Hg1 mi
4:00 am28 °FIce fog.1 mph93%30.30 "Hg1 mi
3:30 am28 °FIce fog.1 mph93%30.30 "Hg1 mi
3:00 am28 °FIce fog.1 mph93%30.30 "Hg1 mi
2:30 am28 °FIce fog.1 mph93%30.30 "Hg1 mi
2:00 am28 °FLight snow. Ice fog.1 mph93%30.30 "Hg1 mi
1:30 am28 °FLight snow. Ice fog.1 mph93%30.30 "Hg1 mi
1:00 am28 °FLight snow. Ice fog.1 mph93%30.30 "Hg1 mi
12:30 am28 °FLight snow. Ice fog.3 mph93%30.30 "Hg1 mi
12:00 am28 °FLight snow. Ice fog.1 mph93%30.30 "Hg1 mi
11:30 pm
Wed, Jan 26
28 °FLight snow. Ice fog.1 mph93%30.30 "Hg1 mi
11:00 pm28 °FLight snow. Ice fog.1 mph86%30.30 "Hg1 mi
10:30 pm28 °FLight snow. Ice fog.1 mph86%30.30 "Hg2 mi
10:00 pm28 °FLight snow. Ice fog.1 mph86%30.30 "Hg2 mi
9:30 pm30 °FLight snow. Ice fog.1 mph80%30.30 "Hg3 mi
9:00 pm30 °FIce fog.3 mph80%30.27 "Hg3 mi
8:30 pm30 °FClear.3 mph80%30.27 "Hg4 mi
8:00 pm32 °FClear.1 mph69%30.24 "Hg4 mi
7:30 pm32 °FClear.3 mph69%30.27 "Hg4 mi
7:00 pm32 °FClear.3 mph69%30.24 "Hg4 mi
6:30 pm32 °FClear.3 mph64%30.24 "Hg4 mi
6:00 pm34 °FClear.6 mph60%30.21 "Hg4 mi
5:30 pm34 °FClear.3 mph56%30.21 "Hg4 mi
5:00 pm36 °FClear.3 mph52%30.21 "Hg4 mi
4:30 pm36 °FClear.6 mph48%30.18 "Hg5 mi
4:00 pm36 °FClear.6 mph44%30.18 "Hg5 mi
3:30 pm37 °FSunny.3 mph41%30.18 "Hg10 mi
3:00 pm37 °FSunny.1 mph35%30.18 "Hg10 mi
2:30 pm36 °FSunny.1 mph38%30.18 "Hg10 mi
2:00 pm37 °FSunny.1 mph38%30.18 "Hg10 mi
1:30 pm37 °FPassing clouds.3 mph38%30.21 "HgN/A
1:00 pm36 °FSunny.1 mph41%30.21 "Hg10 mi
12:30 pm36 °FSunny.1 mph41%30.24 "Hg10 mi
12:00 pm36 °FSunny.1 mph41%30.24 "Hg10 mi
11:30 am34 °FClear.1 mph44%30.24 "Hg5 mi
11:00 am32 °FClear.3 mph44%30.27 "Hg5 mi
10:30 am32 °FClear.3 mph51%30.27 "Hg5 mi
10:00 am30 °FClear.3 mph55%30.27 "Hg5 mi
9:30 am28 °FClear.3 mph64%30.27 "Hg5 mi
9:00 am27 °FClear.1 mph69%30.27 "Hg4 mi
8:30 am25 °FClear.No wind80%30.24 "Hg4 mi
8:00 am23 °FIce fog.1 mph80%30.24 "Hg3 mi
7:30 am23 °FClear.1 mph80%30.24 "Hg4 mi
7:00 am23 °FClear.1 mph80%30.21 "Hg5 mi
6:30 am23 °FClear.1 mph74%30.21 "Hg5 mi
6:00 am23 °FClear.1 mph74%30.21 "Hg5 mi
Weather by CustomWeather, © 2022

See weather overview